| Date | Time | Temp. (oF) | Dew Point (oF) | Rel. Hum. (%) | Press. (in.) | Wind Dir. | Wind Speed (mph) | Hourly Rainfall (in.) |
|
|---|---|---|---|---|---|---|---|---|---|
| 1 | 08/11 | 00:00 | 80 | 72 | 77 | 29.86 | WNW | 0 | 0.00 |
| 2 | 08/10 | 23:00 | 82 | 72 | 72 | 29.85 | WSW | 0 | 0.00 |
| 3 | 08/10 | 22:00 | 83 | 72 | 71 | 29.87 | WSW | 2 | 0.00 |
| 4 | 08/10 | 21:00 | 84 | 73 | 71 | 29.84 | SW | 0 | 0.00 |
| 5 | 08/10 | 20:00 | 86 | 73 | 66 | 29.83 | WSW | 4 | 0.00 |
| 6 | 08/10 | 19:00 | 88 | 72 | 61 | 29.83 | SW | 4 | 0.00 |
| 7 | 08/10 | 18:00 | 90 | 70 | 54 | 29.82 | SW | 3 | 0.00 |
| 8 | 08/10 | 17:00 | 93 | 71 | 50 | 29.83 | SW | 7 | 0.00 |
| 9 | 08/10 | 16:00 | 93 | 73 | 54 | 29.85 | SW | 6 | 0.00 |
| 10 | 08/10 | 15:00 | 93 | 72 | 51 | 29.88 | WSW | 4 | 0.00 |
| 11 | 08/10 | 14:00 | 93 | 75 | 57 | 29.91 | SW | 7 | 0.00 |
| 12 | 08/10 | 13:00 | 92 | 76 | 61 | 29.92 | NW | 8 | 0.00 |
| 13 | 08/10 | 12:00 | 89 | 75 | 64 | 29.94 | NW | 10 | 0.00 |
| 14 | 08/10 | 11:00 | 87 | 75 | 69 | 29.96 | WNW | 2 | 0.00 |
| 15 | 08/10 | 10:00 | 84 | 75 | 75 | 29.97 | NNW | 0 | 0.00 |
| 16 | 08/10 | 09:00 | 80 | 74 | 84 | 29.98 | W | 4 | 0.00 |
| 17 | 08/10 | 08:00 | 74 | 72 | 96 | 29.98 | WNW | 0 | 0.00 |
| 18 | 08/10 | 07:00 | 70 | 69 | 100 | 29.99 | NW | 0 | 0.00 |
| 19 | 08/10 | 06:00 | 68 | 68 | 100 | 29.97 | NE | 0 | 0.00 |
| 20 | 08/10 | 05:00 | 68 | 68 | 100 | 29.97 | SE | 0 | 0.00 |
| 21 | 08/10 | 04:00 | 68 | 68 | 100 | 29.98 | SW | 0 | 0.00 |
| 22 | 08/10 | 03:00 | 68 | 68 | 100 | 29.98 | SSW | 0 | 0.00 |
| 23 | 08/10 | 02:00 | 69 | 68 | 99 | 30.00 | NE | 0 | 0.00 |
| 24 | 08/10 | 01:00 | 69 | 68 | 99 | 30.00 | SW | 0 | 0.00 |